sensor_id;sensor_type;location;lat;lon;timestamp;temperature;humidity
1391;DHT22;690;51.454;7.194;2023-03-30T00:00:11;15.90;99.90
1391;DHT22;690;51.454;7.194;2023-03-30T00:02:43;15.90;99.90
1391;DHT22;690;51.454;7.194;2023-03-30T00:05:11;15.90;99.90
1391;DHT22;690;51.454;7.194;2023-03-30T00:07:40;16.00;99.90
1391;DHT22;690;51.454;7.194;2023-03-30T00:10:08;16.00;99.90
1391;DHT22;690;51.454;7.194;2023-03-30T00:12:36;16.00;99.90
1391;DHT22;690;51.454;7.194;2023-03-30T00:15:04;15.90;99.90
1391;DHT22;690;51.454;7.194;2023-03-30T00:17:31;15.80;99.90
1391;DHT22;690;51.454;7.194;2023-03-30T00:19:59;15.80;99.90
1391;DHT22;690;51.454;7.194;2023-03-30T00:22:33;15.80;99.90
1391;DHT22;690;51.454;7.194;2023-03-30T00:25:01;15.80;99.90
1391;DHT22;690;51.454;7.194;2023-03-30T00:27:28;15.80;99.90
1391;DHT22;690;51.454;7.194;2023-03-30T00:29:55;15.80;99.90
1391;DHT22;690;51.454;7.194;2023-03-30T00:32:21;15.90;99.90
1391;DHT22;690;51.454;7.194;2023-03-30T00:34:48;16.00;99.90
1391;DHT22;690;51.454;7.194;2023-03-30T00:37:15;16.10;99.90
1391;DHT22;690;51.454;7.194;2023-03-30T00:39:42;16.10;99.90
1391;DHT22;690;51.454;7.194;2023-03-30T00:42:14;16.10;99.90
1391;DHT22;690;51.454;7.194;2023-03-30T00:47:54;16.20;99.90
1391;DHT22;690;51.454;7.194;2023-03-30T00:50:26;16.30;99.90
1391;DHT22;690;51.454;7.194;2023-03-30T00:52:55;16.30;99.90
1391;DHT22;690;51.454;7.194;2023-03-30T00:55:23;16.30;99.90
1391;DHT22;690;51.454;7.194;2023-03-30T00:57:53;16.40;99.90
1391;DHT22;690;51.454;7.194;2023-03-30T01:00:21;16.40;99.90
1391;DHT22;690;51.454;7.194;2023-03-30T01:02:52;16.30;99.90
1391;DHT22;690;51.454;7.194;2023-03-30T01:05:20;16.30;99.90
1391;DHT22;690;51.454;7.194;2023-03-30T01:07:49;16.30;99.90
1391;DHT22;690;51.454;7.194;2023-03-30T01:10:18;16.40;99.90
1391;DHT22;690;51.454;7.194;2023-03-30T01:12:45;16.30;99.90
1391;DHT22;690;51.454;7.194;2023-03-30T01:15:13;16.40;99.90
1391;DHT22;690;51.454;7.194;2023-03-30T01:17:54;16.40;99.90
1391;DHT22;690;51.454;7.194;2023-03-30T01:21:07;16.50;99.90
1391;DHT22;690;51.454;7.194;2023-03-30T01:26:50;16.50;99.90
1391;DHT22;690;51.454;7.194;2023-03-30T01:29:40;16.60;99.90
1391;DHT22;690;51.454;7.194;2023-03-30T01:32:43;16.60;99.90
1391;DHT22;690;51.454;7.194;2023-03-30T01:35:28;16.60;99.90
1391;DHT22;690;51.454;7.194;2023-03-30T01:38:33;16.80;99.90
1391;DHT22;690;51.454;7.194;2023-03-30T01:41:10;16.80;99.90
1391;DHT22;690;51.454;7.194;2023-03-30T01:43:46;16.90;99.90
1391;DHT22;690;51.454;7.194;2023-03-30T01:46:18;16.90;99.90
1391;DHT22;690;51.454;7.194;2023-03-30T01:48:56;17.00;99.90
1391;DHT22;690;51.454;7.194;2023-03-30T01:51:28;17.00;99.90
1391;DHT22;690;51.454;7.194;2023-03-30T01:54:00;17.00;99.90
1391;DHT22;690;51.454;7.194;2023-03-30T01:56:34;17.00;99.90
1391;DHT22;690;51.454;7.194;2023-03-30T01:59:05;17.10;99.90
1391;DHT22;690;51.454;7.194;2023-03-30T02:01:35;17.10;99.90
1391;DHT22;690;51.454;7.194;2023-03-30T02:04:06;17.20;99.90
1391;DHT22;690;51.454;7.194;2023-03-30T02:06:36;17.20;99.90
1391;DHT22;690;51.454;7.194;2023-03-30T02:09:05;17.30;99.90
1391;DHT22;690;51.454;7.194;2023-03-30T02:11:36;17.30;99.90
1391;DHT22;690;51.454;7.194;2023-03-30T02:14:05;17.20;99.90
1391;DHT22;690;51.454;7.194;2023-03-30T02:16:38;17.20;99.90
1391;DHT22;690;51.454;7.194;2023-03-30T02:19:07;17.20;99.90
1391;DHT22;690;51.454;7.194;2023-03-30T02:21:34;17.30;99.90
1391;DHT22;690;51.454;7.194;2023-03-30T02:24:03;17.30;99.90
1391;DHT22;690;51.454;7.194;2023-03-30T02:26:32;17.30;99.90
1391;DHT22;690;51.454;7.194;2023-03-30T02:29:02;17.30;99.90
1391;DHT22;690;51.454;7.194;2023-03-30T02:31:30;17.30;99.90
1391;DHT22;690;51.454;7.194;2023-03-30T02:34:07;17.40;99.90
1391;DHT22;690;51.454;7.194;2023-03-30T02:36:44;17.40;99.90
1391;DHT22;690;51.454;7.194;2023-03-30T02:39:22;17.40;99.90
1391;DHT22;690;51.454;7.194;2023-03-30T02:44:53;17.40;99.90
1391;DHT22;690;51.454;7.194;2023-03-30T02:47:27;17.40;99.90
1391;DHT22;690;51.454;7.194;2023-03-30T02:50:00;17.40;99.90
1391;DHT22;690;51.454;7.194;2023-03-30T02:52:40;17.40;99.90
1391;DHT22;690;51.454;7.194;2023-03-30T02:55:13;17.50;99.90
1391;DHT22;690;51.454;7.194;2023-03-30T02:57:48;17.50;99.90
1391;DHT22;690;51.454;7.194;2023-03-30T03:00:24;17.50;99.90
1391;DHT22;690;51.454;7.194;2023-03-30T03:02:55;17.40;99.90
1391;DHT22;690;51.454;7.194;2023-03-30T03:05:26;17.40;99.90
1391;DHT22;690;51.454;7.194;2023-03-30T03:07:57;17.40;99.90
1391;DHT22;690;51.454;7.194;2023-03-30T03:10:24;17.30;99.90
1391;DHT22;690;51.454;7.194;2023-03-30T03:12:51;17.30;99.90
1391;DHT22;690;51.454;7.194;2023-03-30T03:15:17;17.20;99.90
1391;DHT22;690;51.454;7.194;2023-03-30T03:17:46;17.20;99.90
1391;DHT22;690;51.454;7.194;2023-03-30T03:20:14;17.10;99.90
1391;DHT22;690;51.454;7.194;2023-03-30T03:22:41;17.10;99.90
1391;DHT22;690;51.454;7.194;2023-03-30T03:25:08;17.00;99.90
1391;DHT22;690;51.454;7.194;2023-03-30T03:27:36;17.00;99.90
1391;DHT22;690;51.454;7.194;2023-03-30T03:30:03;17.00;99.90
1391;DHT22;690;51.454;7.194;2023-03-30T03:32:30;17.00;99.90
1391;DHT22;690;51.454;7.194;2023-03-30T03:34:58;17.00;99.90
1391;DHT22;690;51.454;7.194;2023-03-30T03:37:25;17.10;99.90
1391;DHT22;690;51.454;7.194;2023-03-30T03:39:52;17.00;99.90
1391;DHT22;690;51.454;7.194;2023-03-30T03:42:19;17.00;99.90
1391;DHT22;690;51.454;7.194;2023-03-30T03:44:46;17.00;99.90
1391;DHT22;690;51.454;7.194;2023-03-30T03:47:13;17.10;99.90
1391;DHT22;690;51.454;7.194;2023-03-30T03:49:41;17.10;99.90
1391;DHT22;690;51.454;7.194;2023-03-30T03:52:09;17.20;99.90
1391;DHT22;690;51.454;7.194;2023-03-30T03:54:36;17.20;99.90
1391;DHT22;690;51.454;7.194;2023-03-30T03:57:03;17.20;99.90
1391;DHT22;690;51.454;7.194;2023-03-30T03:59:31;17.20;99.90
1391;DHT22;690;51.454;7.194;2023-03-30T04:01:58;17.20;99.90
1391;DHT22;690;51.454;7.194;2023-03-30T04:04:25;17.30;99.90
1391;DHT22;690;51.454;7.194;2023-03-30T04:06:52;17.30;99.90
1391;DHT22;690;51.454;7.194;2023-03-30T04:09:20;17.40;99.90
1391;DHT22;690;51.454;7.194;2023-03-30T04:11:47;17.40;99.90
1391;DHT22;690;51.454;7.194;2023-03-30T04:14:15;17.40;99.90
1391;DHT22;690;51.454;7.194;2023-03-30T04:16:42;17.50;99.90
1391;DHT22;690;51.454;7.194;2023-03-30T04:19:09;17.40;99.90
1391;DHT22;690;51.454;7.194;2023-03-30T04:21:37;17.40;99.90
1391;DHT22;690;51.454;7.194;2023-03-30T04:24:06;17.50;99.90
1391;DHT22;690;51.454;7.194;2023-03-30T04:26:36;17.50;99.90
1391;DHT22;690;51.454;7.194;2023-03-30T04:29:03;17.50;99.90
1391;DHT22;690;51.454;7.194;2023-03-30T04:31:31;17.50;99.90
1391;DHT22;690;51.454;7.194;2023-03-30T04:34:00;17.50;99.90
1391;DHT22;690;51.454;7.194;2023-03-30T04:36:29;17.50;99.90
1391;DHT22;690;51.454;7.194;2023-03-30T04:38:56;17.50;99.90
1391;DHT22;690;51.454;7.194;2023-03-30T04:41:27;17.40;99.90
1391;DHT22;690;51.454;7.194;2023-03-30T04:44:01;17.40;99.90
1391;DHT22;690;51.454;7.194;2023-03-30T04:46:28;17.40;99.90
1391;DHT22;690;51.454;7.194;2023-03-30T04:48:55;17.40;99.90
1391;DHT22;690;51.454;7.194;2023-03-30T04:51:22;17.40;99.90
1391;DHT22;690;51.454;7.194;2023-03-30T04:53:49;17.40;99.90
1391;DHT22;690;51.454;7.194;2023-03-30T04:56:16;17.40;99.90
1391;DHT22;690;51.454;7.194;2023-03-30T04:58:43;17.40;99.90
1391;DHT22;690;51.454;7.194;2023-03-30T05:01:11;17.30;99.90
1391;DHT22;690;51.454;7.194;2023-03-30T05:03:38;17.30;99.90
1391;DHT22;690;51.454;7.194;2023-03-30T05:06:06;17.40;99.90
1391;DHT22;690;51.454;7.194;2023-03-30T05:08:33;17.30;99.90
1391;DHT22;690;51.454;7.194;2023-03-30T05:11:00;17.30;99.90
1391;DHT22;690;51.454;7.194;2023-03-30T05:13:29;17.30;99.90
1391;DHT22;690;51.454;7.194;2023-03-30T05:15:56;17.30;99.90
1391;DHT22;690;51.454;7.194;2023-03-30T05:18:25;17.30;99.90
1391;DHT22;690;51.454;7.194;2023-03-30T05:20:55;17.30;99.90
1391;DHT22;690;51.454;7.194;2023-03-30T05:23:22;17.30;99.90
1391;DHT22;690;51.454;7.194;2023-03-30T05:25:49;17.30;99.90
1391;DHT22;690;51.454;7.194;2023-03-30T05:28:16;17.20;99.90
1391;DHT22;690;51.454;7.194;2023-03-30T05:30:43;17.20;99.90
1391;DHT22;690;51.454;7.194;2023-03-30T05:33:11;17.20;99.90
1391;DHT22;690;51.454;7.194;2023-03-30T05:35:39;17.20;99.90
1391;DHT22;690;51.454;7.194;2023-03-30T05:38:06;17.20;99.90
1391;DHT22;690;51.454;7.194;2023-03-30T05:40:33;17.10;99.90
1391;DHT22;690;51.454;7.194;2023-03-30T05:43:01;17.10;99.90
1391;DHT22;690;51.454;7.194;2023-03-30T05:45:27;17.00;99.90
1391;DHT22;690;51.454;7.194;2023-03-30T05:47:54;17.00;99.90
1391;DHT22;690;51.454;7.194;2023-03-30T05:50:21;17.00;99.90
1391;DHT22;690;51.454;7.194;2023-03-30T05:52:49;17.00;99.90
1391;DHT22;690;51.454;7.194;2023-03-30T05:55:16;16.90;99.90
1391;DHT22;690;51.454;7.194;2023-03-30T05:57:44;16.90;99.90
1391;DHT22;690;51.454;7.194;2023-03-30T06:00:12;16.90;99.90
1391;DHT22;690;51.454;7.194;2023-03-30T06:02:48;16.80;99.90
1391;DHT22;690;51.454;7.194;2023-03-30T06:05:16;16.80;99.90
1391;DHT22;690;51.454;7.194;2023-03-30T06:07:43;16.80;99.90
1391;DHT22;690;51.454;7.194;2023-03-30T06:10:12;16.70;99.90
1391;DHT22;690;51.454;7.194;2023-03-30T06:12:39;16.80;99.90
1391;DHT22;690;51.454;7.194;2023-03-30T06:15:07;16.80;99.90
1391;DHT22;690;51.454;7.194;2023-03-30T06:17:34;16.80;99.90
1391;DHT22;690;51.454;7.194;2023-03-30T06:20:01;16.80;99.90
1391;DHT22;690;51.454;7.194;2023-03-30T06:22:33;16.80;99.90
1391;DHT22;690;51.454;7.194;2023-03-30T06:25:00;16.80;99.90
1391;DHT22;690;51.454;7.194;2023-03-30T06:27:28;16.80;99.90
1391;DHT22;690;51.454;7.194;2023-03-30T06:29:57;16.90;99.90
1391;DHT22;690;51.454;7.194;2023-03-30T06:32:24;16.90;99.90
1391;DHT22;690;51.454;7.194;2023-03-30T06:34:51;17.00;99.90
1391;DHT22;690;51.454;7.194;2023-03-30T06:37:18;17.00;99.90
1391;DHT22;690;51.454;7.194;2023-03-30T06:39:45;17.00;99.90
1391;DHT22;690;51.454;7.194;2023-03-30T06:42:12;17.00;99.90
1391;DHT22;690;51.454;7.194;2023-03-30T06:44:40;17.00;99.90
1391;DHT22;690;51.454;7.194;2023-03-30T06:47:08;17.00;99.90
1391;DHT22;690;51.454;7.194;2023-03-30T06:49:34;17.00;99.90
1391;DHT22;690;51.454;7.194;2023-03-30T06:52:01;17.00;99.90
1391;DHT22;690;51.454;7.194;2023-03-30T06:54:28;17.10;99.90
1391;DHT22;690;51.454;7.194;2023-03-30T06:56:55;17.20;99.90
1391;DHT22;690;51.454;7.194;2023-03-30T06:59:22;17.20;99.90
1391;DHT22;690;51.454;7.194;2023-03-30T07:01:50;17.30;99.90
1391;DHT22;690;51.454;7.194;2023-03-30T07:04:17;17.40;99.90
1391;DHT22;690;51.454;7.194;2023-03-30T07:06:44;17.40;99.90
1391;DHT22;690;51.454;7.194;2023-03-30T07:09:11;17.50;99.90
1391;DHT22;690;51.454;7.194;2023-03-30T07:11:38;17.50;99.90
1391;DHT22;690;51.454;7.194;2023-03-30T07:14:05;17.60;99.90
1391;DHT22;690;51.454;7.194;2023-03-30T07:16:34;17.60;99.90
1391;DHT22;690;51.454;7.194;2023-03-30T07:19:04;17.60;99.90
1391;DHT22;690;51.454;7.194;2023-03-30T07:21:31;17.70;99.90
1391;DHT22;690;51.454;7.194;2023-03-30T07:23:58;17.60;99.90
1391;DHT22;690;51.454;7.194;2023-03-30T07:26:26;17.60;99.90
1391;DHT22;690;51.454;7.194;2023-03-30T07:28:53;17.70;99.90
1391;DHT22;690;51.454;7.194;2023-03-30T07:31:21;17.70;99.90
1391;DHT22;690;51.454;7.194;2023-03-30T07:33:49;17.70;99.90
1391;DHT22;690;51.454;7.194;2023-03-30T07:36:17;17.80;99.90
1391;DHT22;690;51.454;7.194;2023-03-30T07:38:44;17.70;99.90
1391;DHT22;690;51.454;7.194;2023-03-30T07:41:13;17.70;99.90
1391;DHT22;690;51.454;7.194;2023-03-30T07:43:40;17.70;99.90
1391;DHT22;690;51.454;7.194;2023-03-30T07:46:08;17.50;99.90
1391;DHT22;690;51.454;7.194;2023-03-30T07:48:36;17.50;99.90
1391;DHT22;690;51.454;7.194;2023-03-30T07:51:05;17.50;99.90
1391;DHT22;690;51.454;7.194;2023-03-30T07:53:33;17.50;99.90
1391;DHT22;690;51.454;7.194;2023-03-30T07:56:01;17.50;99.90
1391;DHT22;690;51.454;7.194;2023-03-30T07:58:28;17.40;99.90
1391;DHT22;690;51.454;7.194;2023-03-30T08:00:56;17.30;99.90
1391;DHT22;690;51.454;7.194;2023-03-30T08:03:23;17.40;99.90
1391;DHT22;690;51.454;7.194;2023-03-30T08:05:53;17.50;99.90
1391;DHT22;690;51.454;7.194;2023-03-30T08:08:21;17.60;99.90
1391;DHT22;690;51.454;7.194;2023-03-30T08:10:50;17.50;99.90
1391;DHT22;690;51.454;7.194;2023-03-30T08:13:17;17.30;99.90
1391;DHT22;690;51.454;7.194;2023-03-30T08:15:44;17.10;99.90
1391;DHT22;690;51.454;7.194;2023-03-30T08:18:11;16.90;99.90
1391;DHT22;690;51.454;7.194;2023-03-30T08:20:40;16.80;99.90
1391;DHT22;690;51.454;7.194;2023-03-30T08:23:08;16.80;99.90
1391;DHT22;690;51.454;7.194;2023-03-30T08:25:37;16.80;99.90
1391;DHT22;690;51.454;7.194;2023-03-30T08:28:06;16.90;99.90
1391;DHT22;690;51.454;7.194;2023-03-30T08:30:34;17.10;99.90
1391;DHT22;690;51.454;7.194;2023-03-30T08:33:02;17.30;99.90
1391;DHT22;690;51.454;7.194;2023-03-30T08:35:29;17.30;99.90
1391;DHT22;690;51.454;7.194;2023-03-30T08:37:56;17.40;99.90
1391;DHT22;690;51.454;7.194;2023-03-30T08:40:23;17.50;99.90
1391;DHT22;690;51.454;7.194;2023-03-30T08:45:46;17.60;99.90
1391;DHT22;690;51.454;7.194;2023-03-30T08:48:16;17.50;99.90
1391;DHT22;690;51.454;7.194;2023-03-30T08:50:47;17.40;99.90
1391;DHT22;690;51.454;7.194;2023-03-30T08:53:18;17.40;99.90
1391;DHT22;690;51.454;7.194;2023-03-30T08:55:48;17.30;99.90
1391;DHT22;690;51.454;7.194;2023-03-30T08:58:24;17.30;99.90
1391;DHT22;690;51.454;7.194;2023-03-30T09:01:01;17.30;99.90
1391;DHT22;690;51.454;7.194;2023-03-30T09:03:38;17.10;99.90
1391;DHT22;690;51.454;7.194;2023-03-30T09:06:10;17.00;99.90
1391;DHT22;690;51.454;7.194;2023-03-30T09:08:39;17.10;99.90
1391;DHT22;690;51.454;7.194;2023-03-30T09:11:10;17.20;99.90
1391;DHT22;690;51.454;7.194;2023-03-30T09:13:41;17.40;99.90
1391;DHT22;690;51.454;7.194;2023-03-30T09:16:17;17.60;99.90
1391;DHT22;690;51.454;7.194;2023-03-30T09:18:49;18.00;99.90
1391;DHT22;690;51.454;7.194;2023-03-30T09:21:20;18.20;99.90
1391;DHT22;690;51.454;7.194;2023-03-30T09:23:48;18.30;99.90
1391;DHT22;690;51.454;7.194;2023-03-30T09:26:22;18.20;99.90
1391;DHT22;690;51.454;7.194;2023-03-30T09:28:58;18.20;99.90
1391;DHT22;690;51.454;7.194;2023-03-30T09:31:34;18.10;99.90
1391;DHT22;690;51.454;7.194;2023-03-30T09:34:04;17.70;99.90
1391;DHT22;690;51.454;7.194;2023-03-30T09:36:36;17.60;99.90
1391;DHT22;690;51.454;7.194;2023-03-30T09:39:08;17.50;99.90
1391;DHT22;690;51.454;7.194;2023-03-30T09:41:50;17.40;99.90
1391;DHT22;690;51.454;7.194;2023-03-30T09:44:26;17.40;99.90
1391;DHT22;690;51.454;7.194;2023-03-30T09:46:57;17.40;99.90
1391;DHT22;690;51.454;7.194;2023-03-30T09:49:26;17.30;99.90
1391;DHT22;690;51.454;7.194;2023-03-30T09:51:55;17.20;99.90
1391;DHT22;690;51.454;7.194;2023-03-30T09:54:34;17.30;99.90
1391;DHT22;690;51.454;7.194;2023-03-30T09:57:02;17.30;99.90
1391;DHT22;690;51.454;7.194;2023-03-30T09:59:31;17.10;99.90
1391;DHT22;690;51.454;7.194;2023-03-30T10:02:17;17.10;99.90
1391;DHT22;690;51.454;7.194;2023-03-30T10:05:01;17.20;99.90
1391;DHT22;690;51.454;7.194;2023-03-30T10:07:33;17.30;99.90
1391;DHT22;690;51.454;7.194;2023-03-30T10:10:11;17.50;99.90
1391;DHT22;690;51.454;7.194;2023-03-30T10:12:43;17.60;99.90
1391;DHT22;690;51.454;7.194;2023-03-30T10:15:15;17.70;99.90
1391;DHT22;690;51.454;7.194;2023-03-30T10:17:45;17.70;99.90
1391;DHT22;690;51.454;7.194;2023-03-30T10:20:25;17.80;99.90
1391;DHT22;690;51.454;7.194;2023-03-30T10:22:54;17.80;99.90
1391;DHT22;690;51.454;7.194;2023-03-30T10:25:24;17.90;99.90
1391;DHT22;690;51.454;7.194;2023-03-30T10:27:54;17.80;99.90
1391;DHT22;690;51.454;7.194;2023-03-30T10:30:23;17.80;99.90
1391;DHT22;690;51.454;7.194;2023-03-30T10:32:58;17.60;99.90
1391;DHT22;690;51.454;7.194;2023-03-30T10:35:32;17.40;99.90
1391;DHT22;690;51.454;7.194;2023-03-30T10:38:01;17.40;99.90
1391;DHT22;690;51.454;7.194;2023-03-30T10:40:33;17.50;99.90
1391;DHT22;690;51.454;7.194;2023-03-30T10:43:02;17.50;99.90
1391;DHT22;690;51.454;7.194;2023-03-30T10:45:33;17.70;99.90
1391;DHT22;690;51.454;7.194;2023-03-30T10:48:30;17.70;99.90
1391;DHT22;690;51.454;7.194;2023-03-30T10:51:06;17.60;99.90
1391;DHT22;690;51.454;7.194;2023-03-30T10:53:42;17.60;99.90
1391;DHT22;690;51.454;7.194;2023-03-30T10:56:18;17.60;99.90
1391;DHT22;690;51.454;7.194;2023-03-30T10:59:14;17.70;99.90
1391;DHT22;690;51.454;7.194;2023-03-30T11:01:53;17.90;99.90
1391;DHT22;690;51.454;7.194;2023-03-30T11:04:27;17.90;99.90
1391;DHT22;690;51.454;7.194;2023-03-30T11:06:57;17.80;99.90
1391;DHT22;690;51.454;7.194;2023-03-30T11:09:29;17.70;99.90
1391;DHT22;690;51.454;7.194;2023-03-30T11:12:00;17.60;99.90
1391;DHT22;690;51.454;7.194;2023-03-30T11:14:38;17.60;99.90
1391;DHT22;690;51.454;7.194;2023-03-30T11:17:10;17.60;99.90
1391;DHT22;690;51.454;7.194;2023-03-30T11:19:46;17.90;99.90
1391;DHT22;690;51.454;7.194;2023-03-30T11:22:25;18.20;99.90
1391;DHT22;690;51.454;7.194;2023-03-30T11:24:55;18.40;99.90
1391;DHT22;690;51.454;7.194;2023-03-30T11:27:25;18.60;99.90
1391;DHT22;690;51.454;7.194;2023-03-30T11:29:58;18.70;99.90
1391;DHT22;690;51.454;7.194;2023-03-30T11:32:31;18.80;99.90
1391;DHT22;690;51.454;7.194;2023-03-30T11:35:07;18.90;99.90
1391;DHT22;690;51.454;7.194;2023-03-30T11:37:41;18.90;99.90
1391;DHT22;690;51.454;7.194;2023-03-30T11:40:15;18.90;99.90
1391;DHT22;690;51.454;7.194;2023-03-30T11:42:43;18.70;99.90
1391;DHT22;690;51.454;7.194;2023-03-30T11:45:17;18.70;99.90
1391;DHT22;690;51.454;7.194;2023-03-30T11:48:01;18.70;99.90
1391;DHT22;690;51.454;7.194;2023-03-30T11:50:43;18.80;99.90
1391;DHT22;690;51.454;7.194;2023-03-30T11:53:22;19.10;99.90
1391;DHT22;690;51.454;7.194;2023-03-30T11:55:58;19.10;99.90
1391;DHT22;690;51.454;7.194;2023-03-30T11:58:33;19.10;99.90
1391;DHT22;690;51.454;7.194;2023-03-30T12:01:12;18.90;99.90
1391;DHT22;690;51.454;7.194;2023-03-30T12:03:46;18.80;99.90
1391;DHT22;690;51.454;7.194;2023-03-30T12:06:31;18.90;99.90
1391;DHT22;690;51.454;7.194;2023-03-30T12:09:17;19.00;99.90
1391;DHT22;690;51.454;7.194;2023-03-30T12:11:48;18.90;99.90
1391;DHT22;690;51.454;7.194;2023-03-30T12:14:35;18.90;99.90
1391;DHT22;690;51.454;7.194;2023-03-30T12:17:12;18.60;99.90
1391;DHT22;690;51.454;7.194;2023-03-30T12:19:49;18.50;99.90
1391;DHT22;690;51.454;7.194;2023-03-30T12:22:22;18.40;99.90
1391;DHT22;690;51.454;7.194;2023-03-30T12:24:56;18.50;99.90
1391;DHT22;690;51.454;7.194;2023-03-30T12:27:25;18.70;99.90
1391;DHT22;690;51.454;7.194;2023-03-30T12:29:53;18.80;99.90
1391;DHT22;690;51.454;7.194;2023-03-30T12:32:37;18.70;99.90
1391;DHT22;690;51.454;7.194;2023-03-30T12:38:20;18.70;99.90
1391;DHT22;690;51.454;7.194;2023-03-30T12:40:54;18.50;99.90
1391;DHT22;690;51.454;7.194;2023-03-30T12:43:27;18.30;99.90
1391;DHT22;690;51.454;7.194;2023-03-30T12:46:03;18.10;99.90
1391;DHT22;690;51.454;7.194;2023-03-30T12:48:38;17.90;99.90
1391;DHT22;690;51.454;7.194;2023-03-30T12:51:16;18.00;99.90
1391;DHT22;690;51.454;7.194;2023-03-30T12:53:59;18.20;99.90
1391;DHT22;690;51.454;7.194;2023-03-30T12:56:36;18.20;99.90
1391;DHT22;690;51.454;7.194;2023-03-30T12:59:41;18.10;99.90
1391;DHT22;690;51.454;7.194;2023-03-30T13:05:18;17.60;99.90
1391;DHT22;690;51.454;7.194;2023-03-30T13:07:46;17.30;99.90
1391;DHT22;690;51.454;7.194;2023-03-30T13:10:34;16.90;99.90
1391;DHT22;690;51.454;7.194;2023-03-30T13:13:03;16.60;99.90
1391;DHT22;690;51.454;7.194;2023-03-30T13:15:39;16.40;99.90
1391;DHT22;690;51.454;7.194;2023-03-30T13:18:22;16.20;99.90
1391;DHT22;690;51.454;7.194;2023-03-30T13:21:15;16.00;99.90
1391;DHT22;690;51.454;7.194;2023-03-30T13:23:43;16.00;99.90
1391;DHT22;690;51.454;7.194;2023-03-30T13:26:22;16.20;99.90
1391;DHT22;690;51.454;7.194;2023-03-30T13:28:56;16.40;99.90
1391;DHT22;690;51.454;7.194;2023-03-30T13:31:42;16.50;99.90
1391;DHT22;690;51.454;7.194;2023-03-30T13:34:18;16.60;99.90
1391;DHT22;690;51.454;7.194;2023-03-30T13:36:56;16.60;99.90
1391;DHT22;690;51.454;7.194;2023-03-30T13:39:29;16.60;99.90
1391;DHT22;690;51.454;7.194;2023-03-30T13:42:12;16.80;99.90
1391;DHT22;690;51.454;7.194;2023-03-30T13:44:57;16.90;99.90
1391;DHT22;690;51.454;7.194;2023-03-30T13:47:38;16.90;99.90
1391;DHT22;690;51.454;7.194;2023-03-30T13:50:15;16.90;99.90
1391;DHT22;690;51.454;7.194;2023-03-30T13:52:46;16.90;99.90
1391;DHT22;690;51.454;7.194;2023-03-30T13:55:16;17.00;99.90
1391;DHT22;690;51.454;7.194;2023-03-30T13:57:45;17.10;99.90
1391;DHT22;690;51.454;7.194;2023-03-30T14:00:28;17.40;99.90
1391;DHT22;690;51.454;7.194;2023-03-30T14:03:25;17.50;99.90
1391;DHT22;690;51.454;7.194;2023-03-30T14:05:53;17.50;99.90
1391;DHT22;690;51.454;7.194;2023-03-30T14:08:26;17.60;99.90
1391;DHT22;690;51.454;7.194;2023-03-30T14:10:54;17.90;99.90
1391;DHT22;690;51.454;7.194;2023-03-30T14:13:23;18.10;99.90
1391;DHT22;690;51.454;7.194;2023-03-30T14:15:50;18.30;99.90
1391;DHT22;690;51.454;7.194;2023-03-30T14:18:22;18.60;99.90
1391;DHT22;690;51.454;7.194;2023-03-30T14:20:52;18.60;99.90
1391;DHT22;690;51.454;7.194;2023-03-30T14:23:25;18.70;99.90
1391;DHT22;690;51.454;7.194;2023-03-30T14:25:57;18.90;99.90
1391;DHT22;690;51.454;7.194;2023-03-30T14:28:27;19.20;99.90
1391;DHT22;690;51.454;7.194;2023-03-30T14:30:56;19.40;99.90
1391;DHT22;690;51.454;7.194;2023-03-30T14:33:23;19.40;99.90
1391;DHT22;690;51.454;7.194;2023-03-30T14:35:55;19.30;99.90
1391;DHT22;690;51.454;7.194;2023-03-30T14:38:24;19.00;99.90
1391;DHT22;690;51.454;7.194;2023-03-30T14:40:53;19.00;99.90
1391;DHT22;690;51.454;7.194;2023-03-30T14:43:22;19.10;99.90
1391;DHT22;690;51.454;7.194;2023-03-30T14:45:51;19.20;99.90
1391;DHT22;690;51.454;7.194;2023-03-30T14:48:22;19.40;99.90
1391;DHT22;690;51.454;7.194;2023-03-30T14:50:51;19.40;99.90
1391;DHT22;690;51.454;7.194;2023-03-30T14:53:21;19.30;99.90
1391;DHT22;690;51.454;7.194;2023-03-30T14:55:50;19.20;99.90
1391;DHT22;690;51.454;7.194;2023-03-30T14:58:22;19.20;99.90
1391;DHT22;690;51.454;7.194;2023-03-30T15:00:53;18.90;99.90
1391;DHT22;690;51.454;7.194;2023-03-30T15:03:22;18.80;99.90
1391;DHT22;690;51.454;7.194;2023-03-30T15:05:50;18.50;99.90
1391;DHT22;690;51.454;7.194;2023-03-30T15:08:21;18.30;99.90
1391;DHT22;690;51.454;7.194;2023-03-30T15:10:52;18.20;99.90
1391;DHT22;690;51.454;7.194;2023-03-30T15:13:24;18.30;99.90
1391;DHT22;690;51.454;7.194;2023-03-30T15:15:53;18.40;99.90
1391;DHT22;690;51.454;7.194;2023-03-30T15:18:24;18.50;99.90
1391;DHT22;690;51.454;7.194;2023-03-30T15:20:52;18.40;99.90
1391;DHT22;690;51.454;7.194;2023-03-30T15:23:19;18.20;99.90
1391;DHT22;690;51.454;7.194;2023-03-30T15:25:47;18.10;99.90
1391;DHT22;690;51.454;7.194;2023-03-30T15:28:18;18.00;99.90
1391;DHT22;690;51.454;7.194;2023-03-30T15:30:47;18.00;99.90
1391;DHT22;690;51.454;7.194;2023-03-30T15:33:22;18.00;99.90
1391;DHT22;690;51.454;7.194;2023-03-30T15:35:52;18.00;99.90
1391;DHT22;690;51.454;7.194;2023-03-30T15:38:28;18.00;99.90
1391;DHT22;690;51.454;7.194;2023-03-30T15:40:55;18.10;99.90
1391;DHT22;690;51.454;7.194;2023-03-30T15:43:24;18.10;99.90
1391;DHT22;690;51.454;7.194;2023-03-30T15:45:53;17.90;99.90
1391;DHT22;690;51.454;7.194;2023-03-30T15:48:24;17.80;99.90
1391;DHT22;690;51.454;7.194;2023-03-30T15:50:55;17.50;99.90
1391;DHT22;690;51.454;7.194;2023-03-30T15:53:35;17.20;99.90
1391;DHT22;690;51.454;7.194;2023-03-30T15:56:08;16.70;99.90
1391;DHT22;690;51.454;7.194;2023-03-30T15:58:37;15.90;99.90
1391;DHT22;690;51.454;7.194;2023-03-30T16:01:04;15.20;1.00
1391;DHT22;690;51.454;7.194;2023-03-30T16:03:36;14.80;1.00
1391;DHT22;690;51.454;7.194;2023-03-30T16:06:10;14.70;19.00
1391;DHT22;690;51.454;7.194;2023-03-30T16:08:38;14.90;99.90
1391;DHT22;690;51.454;7.194;2023-03-30T16:11:10;15.20;99.90
1391;DHT22;690;51.454;7.194;2023-03-30T16:13:40;15.60;1.00
1391;DHT22;690;51.454;7.194;2023-03-30T16:16:08;16.10;99.90
1391;DHT22;690;51.454;7.194;2023-03-30T16:18:37;16.50;1.00
1391;DHT22;690;51.454;7.194;2023-03-30T16:21:04;16.90;99.90
1391;DHT22;690;51.454;7.194;2023-03-30T16:23:32;17.40;99.90
1391;DHT22;690;51.454;7.194;2023-03-30T16:25:59;17.70;1.00
1391;DHT22;690;51.454;7.194;2023-03-30T16:28:26;17.80;1.00
1391;DHT22;690;51.454;7.194;2023-03-30T16:30:54;17.90;1.00
1391;DHT22;690;51.454;7.194;2023-03-30T16:33:23;18.10;1.00
1391;DHT22;690;51.454;7.194;2023-03-30T16:35:51;18.70;1.00
1391;DHT22;690;51.454;7.194;2023-03-30T16:38:18;19.30;1.00
1391;DHT22;690;51.454;7.194;2023-03-30T16:40:48;19.40;1.00
1391;DHT22;690;51.454;7.194;2023-03-30T16:43:16;19.30;1.00
1391;DHT22;690;51.454;7.194;2023-03-30T16:45:47;19.30;1.00
1391;DHT22;690;51.454;7.194;2023-03-30T16:48:14;19.40;1.00
1391;DHT22;690;51.454;7.194;2023-03-30T16:50:43;19.40;1.00
1391;DHT22;690;51.454;7.194;2023-03-30T16:53:12;19.10;99.90
1391;DHT22;690;51.454;7.194;2023-03-30T16:55:39;18.60;99.90
1391;DHT22;690;51.454;7.194;2023-03-30T16:58:08;18.10;99.90
1391;DHT22;690;51.454;7.194;2023-03-30T17:00:37;17.60;99.90
1391;DHT22;690;51.454;7.194;2023-03-30T17:03:06;17.10;99.90